Time;durP1;ratioP1;P1;durP2;ratioP2;P2;SDS_P1;SDS_P2;PMS_P1;PMS_P2;Temp;Humidity;BMP_temperature;BMP_pressure;BME280_temperature;BME280_humidity;BME280_pressure;Samples;Min_cycle;Max_cycle;Signal;HPM_P1;HPM_P2
2022/07/23 00:00:32;;;;;;;6.18;3.20;;;16.40;99.90;;;;;;5075828;28;20123;-62
2022/07/23 00:02:58;;;;;;;6.93;3.47;;;16.30;99.90;;;;;;5092594;28;20041;-62
2022/07/23 00:05:23;;;;;;;8.15;3.13;;;16.30;99.90;;;;;;5076419;28;20047;-62
2022/07/23 00:07:49;;;;;;;7.13;3.78;;;16.30;99.90;;;;;;5074990;28;20478;-62
2022/07/23 00:10:15;;;;;;;9.00;3.65;;;16.30;99.90;;;;;;5076692;28;20097;-62
2022/07/23 00:12:42;;;;;;;10.45;3.70;;;16.30;99.90;;;;;;5076278;28;20048;-62
2022/07/23 00:15:08;;;;;;;7.68;3.70;;;16.30;99.90;;;;;;5076438;28;20101;-62
2022/07/23 00:17:34;;;;;;;7.97;3.95;;;16.20;99.90;;;;;;5076593;28;20456;-62
2022/07/23 00:20:00;;;;;;;9.93;4.18;;;16.20;99.90;;;;;;5089690;28;20115;-62
2022/07/23 00:22:27;;;;;;;6.30;4.03;;;16.10;99.90;;;;;;5075400;28;20048;-62
2022/07/23 00:24:53;;;;;;;5.40;3.75;;;16.10;99.90;;;;;;5076726;28;20489;-62
2022/07/23 00:27:18;;;;;;;7.35;3.97;;;16.00;99.90;;;;;;5076179;28;20119;-62
2022/07/23 00:29:44;;;;;;;8.00;3.70;;;16.00;99.90;;;;;;5072283;28;20048;-62
2022/07/23 00:32:10;;;;;;;8.45;4.30;;;15.80;99.90;;;;;;5071137;28;20037;-62
2022/07/23 00:34:36;;;;;;;7.65;3.90;;;15.80;99.90;;;;;;5066186;28;20091;-62
2022/07/23 00:37:01;;;;;;;7.97;4.10;;;15.70;99.90;;;;;;5066387;28;20044;-62
2022/07/23 00:39:27;;;;;;;9.15;3.85;;;15.70;99.90;;;;;;5056857;28;20076;-62
2022/07/23 00:41:53;;;;;;;7.72;3.90;;;15.70;99.90;;;;;;5070682;28;20045;-61
2022/07/23 00:44:21;;;;;;;8.98;3.85;;;15.70;99.90;;;;;;5064913;28;20048;-62
2022/07/23 00:46:58;;;;;;;6.72;4.22;;;15.70;99.90;;;;;;5069508;28;20072;-62
2022/07/23 00:49:28;;;;;;;6.10;4.47;;;15.70;99.90;;;;;;5070372;28;20460;-62
2022/07/23 00:51:55;;;;;;;8.85;4.20;;;15.70;99.90;;;;;;5071536;28;20048;-61
2022/07/23 00:54:24;;;;;;;8.63;3.70;;;15.60;99.90;;;;;;5071416;28;20102;-62
2022/07/23 00:56:50;;;;;;;8.75;4.20;;;15.60;99.90;;;;;;5066306;28;20560;-62
2022/07/23 00:59:15;;;;;;;8.32;4.03;;;15.60;99.90;;;;;;5072500;28;20048;-62
2022/07/23 01:01:43;;;;;;;7.00;3.70;;;15.60;99.90;;;;;;5071797;28;20044;-62
2022/07/23 01:04:09;;;;;;;6.82;4.07;;;15.60;99.90;;;;;;5072927;28;20044;-64
2022/07/23 01:06:37;;;;;;;7.22;4.05;;;15.60;99.90;;;;;;5071581;28;20088;-62
2022/07/23 01:09:05;;;;;;;5.78;4.07;;;15.60;99.90;;;;;;5071797;28;20109;-62
2022/07/23 01:11:33;;;;;;;8.07;4.53;;;15.70;99.90;;;;;;5071656;28;20051;-62
2022/07/23 01:14:07;;;;;;;7.68;4.05;;;15.70;99.90;;;;;;5058399;28;20104;-62
2022/07/23 01:16:32;;;;;;;6.75;4.60;;;15.70;99.90;;;;;;5072129;28;20142;-62
2022/07/23 01:18:58;;;;;;;8.52;4.35;;;15.70;99.90;;;;;;5072579;28;20134;-62
2022/07/23 01:21:24;;;;;;;7.63;3.88;;;15.70;99.90;;;;;;5071753;28;20497;-62
2022/07/23 01:23:50;;;;;;;7.32;4.10;;;15.70;99.90;;;;;;5072572;28;20166;-62
2022/07/23 01:26:16;;;;;;;7.75;4.30;;;15.70;99.90;;;;;;5069938;28;20468;-62
2022/07/23 01:28:43;;;;;;;7.25;4.32;;;15.70;99.90;;;;;;5067073;28;20097;-62
2022/07/23 01:31:08;;;;;;;8.50;4.20;;;15.80;99.90;;;;;;5052415;28;20163;-62
2022/07/23 01:33:34;;;;;;;7.40;3.75;;;15.80;99.90;;;;;;5051532;28;20131;-63
2022/07/23 01:36:00;;;;;;;5.88;3.58;;;15.80;99.90;;;;;;5055024;28;20041;-62
2022/07/23 01:38:25;;;;;;;9.52;4.18;;;15.80;99.90;;;;;;5058464;28;20071;-62
2022/07/23 01:40:51;;;;;;;6.40;3.72;;;15.80;99.90;;;;;;5049836;28;20041;-62
2022/07/23 01:43:17;;;;;;;6.43;3.78;;;15.80;99.90;;;;;;5052749;28;20044;-62
2022/07/23 01:45:44;;;;;;;6.95;3.90;;;15.80;99.90;;;;;;5050846;28;20540;-62
2022/07/23 01:48:10;;;;;;;6.97;3.60;;;15.80;99.90;;;;;;5069535;28;20040;-61
2022/07/23 01:50:35;;;;;;;7.18;3.80;;;15.80;99.90;;;;;;5071649;28;20242;-63
2022/07/23 01:53:01;;;;;;;7.40;3.88;;;15.80;99.90;;;;;;5070661;28;20055;-62
2022/07/23 01:55:27;;;;;;;6.18;3.60;;;15.80;99.90;;;;;;5071378;28;20392;-63
2022/07/23 01:57:52;;;;;;;7.60;3.60;;;15.80;99.90;;;;;;5060739;28;20055;-63
2022/07/23 02:00:18;;;;;;;5.68;3.13;;;15.80;99.90;;;;;;5066772;28;20045;-64
2022/07/23 02:02:44;;;;;;;4.70;3.10;;;15.80;99.90;;;;;;5061796;28;20040;-63
2022/07/23 02:05:10;;;;;;;6.13;3.95;;;15.80;99.90;;;;;;5071450;28;20040;-63
2022/07/23 02:07:35;;;;;;;8.65;3.70;;;15.80;99.90;;;;;;5070088;28;20091;-62
2022/07/23 02:10:01;;;;;;;5.80;3.78;;;15.60;99.90;;;;;;5070133;28;20078;-61
2022/07/23 02:12:27;;;;;;;6.68;3.60;;;15.80;99.90;;;;;;5070806;28;20041;-62
2022/07/23 02:14:53;;;;;;;6.40;3.38;;;15.80;99.90;;;;;;5071574;28;20045;-62
2022/07/23 02:17:18;;;;;;;8.32;3.47;;;15.80;99.90;;;;;;5053650;28;20210;-63
2022/07/23 02:19:44;;;;;;;8.93;3.85;;;15.80;99.90;;;;;;5052710;28;20064;-62
2022/07/23 02:22:09;;;;;;;5.57;2.90;;;15.80;99.90;;;;;;5071300;28;20074;-62
2022/07/23 02:24:35;;;;;;;8.63;3.10;;;15.80;99.90;;;;;;5070472;28;20424;-61
2022/07/23 02:27:01;;;;;;;5.88;2.92;;;15.80;99.90;;;;;;5071436;28;20123;-62
2022/07/23 02:29:26;;;;;;;6.25;3.17;;;15.80;99.90;;;;;;5069292;28;20424;-61
2022/07/23 02:31:52;;;;;;;8.50;3.28;;;15.80;99.90;;;;;;5069762;28;20045;-62
2022/07/23 02:34:18;;;;;;;4.97;3.10;;;15.80;99.90;;;;;;5071123;28;20047;-62
2022/07/23 02:36:44;;;;;;;7.85;3.35;;;15.80;99.90;;;;;;5069626;28;20052;-62
2022/07/23 02:39:10;;;;;;;7.15;3.63;;;15.80;99.90;;;;;;5071067;28;20045;-62
2022/07/23 02:41:35;;;;;;;6.05;3.03;;;15.80;99.90;;;;;;5071047;28;20040;-62
2022/07/23 02:44:01;;;;;;;7.00;3.33;;;15.80;99.90;;;;;;5071028;28;20429;-62
2022/07/23 02:46:27;;;;;;;6.25;3.47;;;15.80;99.90;;;;;;5070064;28;20071;-61
2022/07/23 02:48:52;;;;;;;4.70;3.00;;;15.80;99.90;;;;;;5070088;28;20047;-59
2022/07/23 02:51:18;;;;;;;6.38;3.47;;;15.80;99.90;;;;;;5069918;28;20047;-61
2022/07/23 02:53:44;;;;;;;7.60;3.30;;;15.70;99.90;;;;;;5068638;28;20044;-62
2022/07/23 02:56:10;;;;;;;7.10;3.40;;;15.70;99.90;;;;;;5069718;28;20044;-62
2022/07/23 02:58:35;;;;;;;7.43;3.42;;;15.70;99.90;;;;;;5069600;28;20072;-62
2022/07/23 03:01:01;;;;;;;7.20;3.78;;;15.70;99.90;;;;;;5068913;28;20520;-61
2022/07/23 03:03:27;;;;;;;7.80;3.60;;;15.70;99.90;;;;;;5070433;28;20131;-65
2022/07/23 03:05:52;;;;;;;5.80;3.05;;;15.70;99.90;;;;;;5052748;28;20053;-62
2022/07/23 03:08:18;;;;;;;4.57;3.40;;;15.70;99.90;;;;;;5069426;28;20052;-62
2022/07/23 03:10:44;;;;;;;9.40;3.90;;;15.70;99.90;;;;;;5070178;28;20071;-62
2022/07/23 03:13:09;;;;;;;6.68;3.70;;;15.70;99.90;;;;;;5069878;28;20147;-62
2022/07/23 03:15:35;;;;;;;8.90;3.70;;;15.70;99.90;;;;;;5070121;28;20064;-62
2022/07/23 03:18:01;;;;;;;7.85;3.60;;;15.60;99.90;;;;;;5068730;28;20048;-62
2022/07/23 03:20:27;;;;;;;5.40;3.47;;;15.60;99.90;;;;;;5056160;28;20141;-62
2022/07/23 03:22:52;;;;;;;5.45;3.53;;;15.50;99.90;;;;;;5060592;28;20399;-62
2022/07/23 03:25:18;;;;;;;4.95;2.97;;;15.60;99.90;;;;;;5060895;28;20045;-62
2022/07/23 03:27:45;;;;;;;8.15;3.60;;;15.50;99.90;;;;;;5059248;28;20091;-62
2022/07/23 03:30:11;;;;;;;7.32;3.33;;;15.50;99.90;;;;;;5069437;28;20044;-64
2022/07/23 03:32:37;;;;;;;8.15;3.60;;;15.50;99.90;;;;;;5068679;28;20050;-62
2022/07/23 03:35:04;;;;;;;5.70;3.53;;;15.50;99.90;;;;;;5070625;28;20048;-62
2022/07/23 03:37:29;;;;;;;5.18;3.47;;;15.50;99.90;;;;;;5069852;28;20045;-62
2022/07/23 03:39:55;;;;;;;7.28;3.25;;;15.50;99.90;;;;;;5069892;28;20040;-62
2022/07/23 03:42:21;;;;;;;6.55;3.30;;;15.40;99.90;;;;;;5069057;28;20041;-62
2022/07/23 03:44:47;;;;;;;7.07;3.28;;;15.50;99.90;;;;;;5070096;28;20052;-61
2022/07/23 03:47:12;;;;;;;6.80;3.72;;;15.50;99.90;;;;;;5060850;28;20398;-62
2022/07/23 03:49:38;;;;;;;6.38;3.45;;;15.50;99.90;;;;;;5064685;28;20098;-63
2022/07/23 03:52:04;;;;;;;7.25;4.00;;;15.50;99.90;;;;;;5070160;28;20044;-62
2022/07/23 03:54:30;;;;;;;5.82;3.80;;;15.50;99.90;;;;;;5068996;28;20045;-63
2022/07/23 03:56:55;;;;;;;6.70;3.90;;;15.50;99.90;;;;;;5069728;28;20066;-63
2022/07/23 03:59:21;;;;;;;7.15;3.58;;;15.50;99.90;;;;;;5051031;28;20047;-63
2022/07/23 04:01:47;;;;;;;6.25;3.80;;;15.40;99.90;;;;;;5068686;28;20110;-63
2022/07/23 04:04:13;;;;;;;8.18;3.60;;;15.50;99.90;;;;;;5070857;28;20049;-62
2022/07/23 04:06:39;;;;;;;7.82;3.92;;;15.50;99.90;;;;;;5062137;28;20418;-62
2022/07/23 04:09:04;;;;;;;8.40;3.65;;;15.40;99.90;;;;;;5056082;28;20466;-63
2022/07/23 04:11:30;;;;;;;7.85;3.17;;;15.50;99.90;;;;;;5062144;28;20086;-63
2022/07/23 04:13:56;;;;;;;4.75;3.45;;;15.40;99.90;;;;;;5053154;28;20037;-63
2022/07/23 04:16:22;;;;;;;5.55;3.15;;;15.40;99.90;;;;;;5053750;28;20118;-62
2022/07/23 04:18:47;;;;;;;9.07;3.42;;;15.40;99.90;;;;;;5055789;28;20098;-63
2022/07/23 04:21:13;;;;;;;7.05;3.58;;;15.40;99.90;;;;;;5072898;28;20125;-63
2022/07/23 04:23:39;;;;;;;7.38;3.75;;;15.50;99.90;;;;;;5060368;28;20041;-65
2022/07/23 04:26:04;;;;;;;6.90;4.18;;;15.40;99.90;;;;;;5053551;28;20494;-62
2022/07/23 04:28:30;;;;;;;5.60;3.70;;;15.40;99.90;;;;;;5035741;28;20045;-62
2022/07/23 04:30:57;;;;;;;8.32;4.07;;;15.40;99.90;;;;;;5067018;28;20080;-62
2022/07/23 04:33:23;;;;;;;7.15;3.72;;;15.40;99.90;;;;;;5059734;28;20437;-63
2022/07/23 04:35:49;;;;;;;8.52;4.40;;;15.40;99.90;;;;;;5054841;28;20037;-62
2022/07/23 04:38:14;;;;;;;7.22;3.95;;;15.40;99.90;;;;;;5053241;28;20045;-61
2022/07/23 04:40:40;;;;;;;11.23;4.57;;;15.50;99.90;;;;;;5059197;28;20394;-62
2022/07/23 04:43:05;;;;;;;7.25;4.18;;;15.50;99.90;;;;;;5059908;28;20052;-62
2022/07/23 04:45:31;;;;;;;7.20;4.32;;;15.50;99.90;;;;;;5053148;28;20041;-62
2022/07/23 04:47:57;;;;;;;9.63;3.88;;;15.50;99.90;;;;;;5055797;28;20143;-63
2022/07/23 04:50:22;;;;;;;7.47;4.13;;;15.60;99.90;;;;;;5069491;28;20037;-61
2022/07/23 04:52:48;;;;;;;8.27;3.95;;;15.60;99.90;;;;;;5063800;28;20041;-62
2022/07/23 04:55:15;;;;;;;10.35;3.90;;;15.60;99.90;;;;;;5071776;28;20501;-62
2022/07/23 04:57:40;;;;;;;4.82;3.60;;;15.60;99.90;;;;;;5073037;28;20048;-62
2022/07/23 05:00:07;;;;;;;9.05;4.40;;;15.60;99.90;;;;;;5072459;28;20040;-62
2022/07/23 05:02:33;;;;;;;5.25;3.45;;;15.60;99.90;;;;;;5072506;28;20047;-62
2022/07/23 05:04:59;;;;;;;9.27;3.95;;;15.60;99.90;;;;;;5054472;28;20048;-63
2022/07/23 05:07:24;;;;;;;6.90;4.30;;;15.70;99.90;;;;;;5072365;28;20044;-62
2022/07/23 05:09:50;;;;;;;9.52;4.75;;;15.80;99.90;;;;;;5072835;28;20481;-63
2022/07/23 05:12:16;;;;;;;6.30;4.03;;;15.90;99.90;;;;;;5072248;28;20127;-63
2022/07/23 05:14:41;;;;;;;5.18;3.70;;;16.40;99.90;;;;;;5072099;28;20198;-62
2022/07/23 05:17:08;;;;;;;5.88;3.50;;;16.60;99.90;;;;;;5070396;28;20048;-63
2022/07/23 05:19:35;;;;;;;6.15;3.28;;;16.70;99.90;;;;;;5072590;28;20059;-63
2022/07/23 05:22:01;;;;;;;7.55;3.70;;;16.60;99.90;;;;;;5070719;28;20043;-63
2022/07/23 05:24:26;;;;;;;7.97;3.50;;;16.50;99.90;;;;;;5072071;28;20051;-63
2022/07/23 05:26:52;;;;;;;6.28;3.13;;;16.50;99.90;;;;;;5071673;28;20036;-62
2022/07/23 05:29:18;;;;;;;5.18;2.97;;;16.40;99.90;;;;;;5072186;28;20052;-63
2022/07/23 05:31:44;;;;;;;7.25;3.50;;;16.40;99.90;;;;;;5072475;28;20512;-62
2022/07/23 05:34:09;;;;;;;5.47;3.10;;;16.40;99.90;;;;;;5071343;28;20041;-63
2022/07/23 05:36:35;;;;;;;6.55;3.72;;;16.40;99.90;;;;;;5071978;28;20052;-62
2022/07/23 05:39:01;;;;;;;6.65;3.45;;;16.30;99.90;;;;;;5071590;28;20040;-63
2022/07/23 05:41:27;;;;;;;6.18;3.22;;;16.30;99.90;;;;;;5072084;28;20531;-63
2022/07/23 05:43:53;;;;;;;5.78;3.45;;;16.30;99.90;;;;;;5058798;28;20084;-63
2022/07/23 05:46:18;;;;;;;4.57;3.40;;;16.60;99.90;;;;;;5062104;28;20119;-64
2022/07/23 05:48:45;;;;;;;6.60;3.10;;;17.40;99.90;;;;;;5066027;28;20174;-63
2022/07/23 05:51:11;;;;;;;5.07;3.13;;;18.00;99.90;;;;;;5064325;28;20131;-65
2022/07/23 05:53:38;;;;;;;4.82;3.00;;;18.10;99.90;;;;;;5054365;28;20124;-63
2022/07/23 05:56:04;;;;;;;4.55;2.70;;;18.10;99.90;;;;;;5053264;28;20059;-63
2022/07/23 05:58:29;;;;;;;4.80;2.50;;;17.90;99.90;;;;;;5050211;28;20077;-63
2022/07/23 06:00:55;;;;;;;4.90;2.50;;;17.80;99.90;;;;;;5060482;28;20045;-63
2022/07/23 06:03:21;;;;;;;5.90;2.70;;;17.60;99.90;;;;;;5058651;28;20540;-63
2022/07/23 06:05:47;;;;;;;3.55;2.70;;;17.50;99.90;;;;;;5064070;28;20481;-63
2022/07/23 06:08:12;;;;;;;4.47;2.72;;;17.40;99.90;;;;;;5062102;28;20114;-62
2022/07/23 06:10:38;;;;;;;3.75;2.40;;;17.30;99.90;;;;;;5070331;28;20416;-63
2022/07/23 06:13:04;;;;;;;5.60;2.70;;;17.10;99.90;;;;;;5053310;28;20040;-61
2022/07/23 06:15:30;;;;;;;5.13;2.85;;;17.00;99.90;;;;;;5069146;28;20056;-63
2022/07/23 06:17:56;;;;;;;5.50;2.30;;;17.00;99.90;;;;;;5069687;28;20056;-62
2022/07/23 06:20:22;;;;;;;2.97;2.10;;;16.90;99.90;;;;;;5070068;28;20399;-62
2022/07/23 06:22:48;;;;;;;5.45;2.38;;;16.80;99.90;;;;;;5070067;28;20045;-62
2022/07/23 06:25:13;;;;;;;3.90;1.90;;;16.80;99.90;;;;;;5070712;28;20044;-62
2022/07/23 06:27:39;;;;;;;4.82;2.30;;;16.80;99.90;;;;;;5070040;28;20041;-62
2022/07/23 06:30:08;;;;;;;4.18;2.03;;;16.80;99.90;;;;;;5069194;28;20057;-62
2022/07/23 06:32:33;;;;;;;3.35;1.92;;;16.70;99.90;;;;;;5070822;28;20071;-61
2022/07/23 06:34:59;;;;;;;2.58;1.88;;;16.80;99.90;;;;;;5071060;28;20044;-62
2022/07/23 06:37:25;;;;;;;5.68;1.92;;;16.80;99.90;;;;;;5069174;28;20071;-63
2022/07/23 06:39:50;;;;;;;6.35;2.05;;;17.00;99.90;;;;;;5070958;28;20043;-62
2022/07/23 06:42:16;;;;;;;3.92;1.90;;;17.10;99.90;;;;;;5070482;28;20048;-62
2022/07/23 06:44:42;;;;;;;3.05;1.80;;;17.20;99.90;;;;;;5053212;28;20059;-63
2022/07/23 06:47:08;;;;;;;3.95;1.63;;;17.30;99.90;;;;;;5068954;28;20178;-62
2022/07/23 06:49:33;;;;;;;2.63;1.77;;;17.30;99.90;;;;;;5069927;28;20115;-62
2022/07/23 06:51:59;;;;;;;5.68;2.05;;;17.50;99.90;;;;;;5069788;28;20182;-63
2022/07/23 06:54:25;;;;;;;2.55;1.52;;;17.70;99.90;;;;;;5070691;28;20033;-62
2022/07/23 06:56:51;;;;;;;3.13;1.70;;;18.40;99.90;;;;;;5070242;28;20040;-63
2022/07/23 06:59:16;;;;;;;3.25;1.55;;;19.20;99.90;;;;;;5068888;28;20105;-61
2022/07/23 07:01:42;;;;;;;3.42;1.65;;;20.20;99.90;;;;;;5053005;28;20049;-62
2022/07/23 07:04:08;;;;;;;3.53;1.48;;;21.40;99.90;;;;;;5070515;28;20111;-64
2022/07/23 07:06:34;;;;;;;2.15;1.40;;;22.20;99.90;;;;;;5070017;28;20140;-64
2022/07/23 07:09:00;;;;;;;2.22;1.40;;;22.60;99.90;;;;;;5070039;28;20052;-63
2022/07/23 07:11:25;;;;;;;4.07;1.30;;;22.90;99.90;;;;;;5069177;28;20565;-64
2022/07/23 07:13:51;;;;;;;3.78;1.50;;;23.20;99.90;;;;;;5066312;28;20417;-64
2022/07/23 07:16:17;;;;;;;2.72;1.40;;;23.40;99.40;;;;;;5059707;28;20064;-63
2022/07/23 07:18:43;;;;;;;3.22;1.27;;;23.60;99.40;;;;;;5030051;28;20048;-63
2022/07/23 07:21:09;;;;;;;2.17;1.38;;;;;;;;;;5057399;28;20078;-63
2022/07/23 07:23:35;;;;;;;1.90;1.10;;;23.90;98.30;;;;;;5050582;28;20323;-64
2022/07/23 07:26:00;;;;;;;2.53;1.38;;;25.40;96.60;;;;;;5083224;28;20058;-63
2022/07/23 07:28:26;;;;;;;1.63;0.80;;;26.20;96.00;;;;;;5069849;28;20085;-63
2022/07/23 07:30:52;;;;;;;3.10;1.00;;;27.20;94.30;;;;;;5069868;28;20131;-63
2022/07/23 07:33:18;;;;;;;1.17;0.63;;;27.90;92.80;;;;;;5054471;28;20070;-63
2022/07/23 07:35:44;;;;;;;1.45;0.70;;;28.20;91.50;;;;;;5070518;28;20497;-64
2022/07/23 07:38:10;;;;;;;1.75;0.65;;;28.20;90.90;;;;;;5069606;28;20158;-63
2022/07/23 07:40:35;;;;;;;2.70;0.77;;;28.30;90.10;;;;;;5056193;28;20056;-63
2022/07/23 07:43:03;;;;;;;2.20;0.70;;;28.60;90.50;;;;;;5074546;28;20504;-63
2022/07/23 07:45:29;;;;;;;0.95;0.50;;;28.90;88.50;;;;;;5073671;28;20099;-62
2022/07/23 07:47:54;;;;;;;2.20;0.70;;;28.60;87.20;;;;;;5058987;28;20060;-66
2022/07/23 07:50:21;;;;;;;1.15;0.65;;;27.60;86.00;;;;;;5073524;28;20044;-67
2022/07/23 07:52:47;;;;;;;1.60;0.57;;;26.70;86.90;;;;;;5074211;28;20141;-67
2022/07/23 07:55:13;;;;;;;1.15;0.68;;;25.60;87.50;;;;;;5073202;28;20628;-65
2022/07/23 07:57:40;;;;;;;2.58;0.90;;;24.80;89.40;;;;;;5074271;28;20119;-69
2022/07/23 08:00:08;;;;;;;0.43;0.43;;;24.00;90.90;;;;;;5073725;28;20121;-64
2022/07/23 08:02:53;;;;;;;2.10;0.77;;;23.50;91.50;;;;;;5056091;28;20088;-63
2022/07/23 08:05:23;;;;;;;2.70;0.77;;;23.50;91.90;;;;;;5068789;28;20085;-64
2022/07/23 08:07:49;;;;;;;2.60;0.60;;;23.70;92.10;;;;;;5067773;28;20060;-62
2022/07/23 08:10:16;;;;;;;2.30;0.57;;;23.80;92.30;;;;;;5057303;28;20132;-63
2022/07/23 08:12:49;;;;;;;1.20;0.50;;;23.60;92.50;;;;;;5053995;28;20037;-64
2022/07/23 08:15:17;;;;;;;3.30;0.70;;;23.40;92.80;;;;;;5055784;28;20060;-63
2022/07/23 08:17:45;;;;;;;0.63;0.50;;;23.00;92.80;;;;;;5053744;28;20365;-63
2022/07/23 08:20:12;;;;;;;1.40;0.43;;;22.80;93.10;;;;;;5058156;28;20174;-64
2022/07/23 08:22:54;;;;;;;1.85;0.60;;;22.60;93.10;;;;;;5060382;28;20053;-64
2022/07/23 08:25:23;;;;;;;1.60;0.60;;;22.40;93.40;;;;;;5057866;28;20049;-64
2022/07/23 08:27:49;;;;;;;1.73;0.57;;;22.50;94.50;;;;;;5073792;28;20045;-65
2022/07/23 08:30:16;;;;;;;0.95;0.50;;;23.00;93.80;;;;;;5070799;28;20062;-65
2022/07/23 08:32:53;;;;;;;1.88;0.63;;;23.40;93.70;;;;;;5055069;28;20049;-65
2022/07/23 08:35:28;;;;;;;1.55;0.55;;;23.90;93.70;;;;;;5034663;28;20157;-64
2022/07/23 08:37:55;;;;;;;3.60;0.70;;;24.40;92.80;;;;;;5053426;28;20691;-64
2022/07/23 08:40:21;;;;;;;1.55;0.52;;;24.50;92.00;;;;;;5071130;28;20052;-63
2022/07/23 08:42:49;;;;;;;1.60;0.63;;;24.20;92.10;;;;;;5069732;28;20147;-62
2022/07/23 08:45:20;;;;;;;1.30;0.90;;;24.00;92.10;;;;;;5055267;28;20103;-63
2022/07/23 08:47:49;;;;;;;2.97;0.90;;;23.50;92.20;;;;;;5059586;28;20037;-63
2022/07/23 08:50:16;;;;;;;2.47;0.70;;;23.30;93.00;;;;;;5058424;28;20040;-63
2022/07/23 08:52:41;;;;;;;2.97;0.70;;;23.30;92.90;;;;;;5072441;28;20037;-63
2022/07/23 08:55:08;;;;;;;1.92;0.70;;;23.80;93.00;;;;;;5073221;28;20041;-63
2022/07/23 08:57:33;;;;;;;1.30;0.60;;;24.60;92.00;;;;;;5054711;28;20063;-63
2022/07/23 08:59:59;;;;;;;1.48;0.70;;;25.40;92.20;;;;;;5072883;28;20044;-61
2022/07/23 09:02:25;;;;;;;2.53;0.90;;;26.10;91.60;;;;;;5072120;28;20041;-68
2022/07/23 09:04:50;;;;;;;3.25;1.00;;;26.50;89.90;;;;;;5071501;28;20040;-65
2022/07/23 09:07:16;;;;;;;3.28;1.58;;;26.50;90.20;;;;;;5073182;28;20044;-66
2022/07/23 09:09:42;;;;;;;3.45;0.75;;;26.20;90.00;;;;;;5071163;28;20067;-67
2022/07/23 09:12:09;;;;;;;1.58;0.85;;;25.80;89.80;;;;;;5071473;28;20075;-65
2022/07/23 09:14:41;;;;;;;2.90;0.98;;;25.20;90.30;;;;;;5072104;28;20461;-65
2022/07/23 09:17:17;;;;;;;1.70;0.73;;;24.90;90.50;;;;;;5072747;28;20040;-67
2022/07/23 09:19:44;;;;;;;1.27;0.90;;;24.70;90.70;;;;;;5072522;28;20448;-65
2022/07/23 09:22:18;;;;;;;1.90;0.75;;;24.40;90.90;;;;;;5069025;28;20029;-63
2022/07/23 09:25:13;;;;;;;3.03;1.00;;;24.20;90.90;;;;;;5066369;28;20098;-66
2022/07/23 09:28:03;;;;;;;3.72;0.80;;;24.10;90.90;;;;;;5065168;28;20476;-65
2022/07/23 09:30:31;;;;;;;2.42;0.80;;;23.90;91.10;;;;;;5057139;28;20517;-68
2022/07/23 09:33:04;;;;;;;2.00;0.75;;;23.80;91.20;;;;;;5055561;28;20510;-66
2022/07/23 09:35:52;;;;;;;2.00;0.82;;;23.70;90.70;;;;;;5062521;28;20140;-64
2022/07/23 09:38:23;;;;;;;3.45;1.00;;;23.60;91.00;;;;;;5058207;28;20443;-65
2022/07/23 09:41:07;;;;;;;4.60;0.77;;;23.60;91.40;;;;;;5054609;28;20063;-64
2022/07/23 09:43:33;;;;;;;3.83;0.85;;;23.60;91.10;;;;;;5050531;28;20087;-64
2022/07/23 09:46:23;;;;;;;3.08;0.82;;;23.60;91.60;;;;;;5059630;28;20518;-65
2022/07/23 09:48:51;;;;;;;1.65;0.95;;;23.80;91.00;;;;;;5069641;28;20371;-64
2022/07/23 09:51:21;;;;;;;2.65;1.00;;;23.80;91.30;;;;;;5071643;28;20161;-64
2022/07/23 09:53:47;;;;;;;3.90;1.00;;;23.80;91.50;;;;;;5069376;28;20397;-64
2022/07/23 09:56:14;;;;;;;3.95;0.82;;;23.70;91.20;;;;;;5070897;28;20056;-64
2022/07/23 09:58:45;;;;;;;4.75;0.90;;;23.50;91.10;;;;;;5059323;28;20490;-63
2022/07/23 10:01:12;;;;;;;2.70;0.80;;;23.40;91.70;;;;;;5066347;28;20076;-63
2022/07/23 10:03:39;;;;;;;2.10;1.02;;;23.40;92.00;;;;;;5058321;28;20561;-63
2022/07/23 10:06:05;;;;;;;2.50;0.73;;;23.40;92.00;;;;;;5051390;28;20452;-64
2022/07/23 10:08:32;;;;;;;2.15;1.05;;;23.50;91.90;;;;;;5052748;28;20368;-62
2022/07/23 10:11:00;;;;;;;2.17;0.70;;;23.30;92.20;;;;;;5050225;28;20048;-64
2022/07/23 10:15:52;;;;;;;3.33;0.80;;;23.30;92.30;;;;;;5054243;28;20402;-63
2022/07/23 10:18:18;;;;;;;2.47;1.10;;;23.30;92.00;;;;;;5051060;28;20041;-64
2022/07/23 10:20:46;;;;;;;2.75;0.90;;;23.30;92.20;;;;;;5050351;28;20065;-64
2022/07/23 10:23:39;;;;;;;1.50;0.85;;;23.30;92.60;;;;;;5050995;28;20047;-64
2022/07/23 10:26:19;;;;;;;2.75;1.00;;;23.30;92.60;;;;;;5058487;28;20516;-65
2022/07/23 10:29:40;;;;;;;2.95;1.15;;;23.20;92.70;;;;;;5066084;28;20394;-65
2022/07/23 10:32:17;;;;;;;3.60;0.80;;;23.20;93.30;;;;;;5034732;28;20095;-64
2022/07/23 10:35:03;;;;;;;2.35;0.90;;;23.10;93.30;;;;;;5070328;28;20379;-64
2022/07/23 10:37:40;;;;;;;2.58;1.00;;;23.00;93.30;;;;;;5068451;28;20470;-64
2022/07/23 10:40:22;;;;;;;2.00;0.90;;;23.00;93.30;;;;;;5059855;28;20425;-63
2022/07/23 10:42:51;;;;;;;4.20;1.20;;;23.00;93.40;;;;;;5058132;28;20052;-63
2022/07/23 10:45:29;;;;;;;2.85;1.10;;;23.00;93.40;;;;;;5050851;28;20111;-64
2022/07/23 10:47:56;;;;;;;1.38;0.73;;;23.10;93.60;;;;;;5061265;28;20048;-64
2022/07/23 10:50:25;;;;;;;4.45;1.30;;;23.20;93.70;;;;;;5054055;28;20109;-64
2022/07/23 10:53:13;;;;;;;3.78;1.30;;;23.30;93.80;;;;;;5068955;28;20084;-63
2022/07/23 10:55:41;;;;;;;3.22;1.00;;;23.40;93.50;;;;;;5051149;28;20044;-66
2022/07/23 10:58:07;;;;;;;3.92;1.30;;;23.50;93.70;;;;;;5050360;28;20107;-64
2022/07/23 11:00:34;;;;;;;3.30;1.27;;;23.70;93.30;;;;;;5050611;28;20052;-64
2022/07/23 11:03:01;;;;;;;2.83;1.38;;;23.70;93.40;;;;;;5057786;28;20048;-64
2022/07/23 11:05:43;;;;;;;3.20;1.20;;;23.80;93.30;;;;;;5054931;28;20053;-65
2022/07/23 11:08:11;;;;;;;1.65;0.93;;;23.90;93.50;;;;;;5066821;28;20363;-64
2022/07/23 11:10:52;;;;;;;3.22;1.10;;;23.90;93.50;;;;;;5068457;28;20048;-67
2022/07/23 11:13:24;;;;;;;4.78;1.17;;;23.90;93.50;;;;;;5069322;28;20044;-64
2022/07/23 11:16:02;;;;;;;2.47;1.08;;;23.70;93.60;;;;;;5059620;28;20041;-64
2022/07/23 11:18:39;;;;;;;2.58;1.52;;;23.50;94.40;;;;;;5063408;28;20040;-64
2022/07/23 11:21:23;;;;;;;4.18;1.35;;;23.40;94.10;;;;;;5063859;28;20120;-64
2022/07/23 11:23:59;;;;;;;5.45;1.45;;;23.30;94.10;;;;;;5065139;28;20801;-64
2022/07/23 11:26:37;;;;;;;3.83;1.42;;;23.40;94.30;;;;;;5056982;28;20064;-63
2022/07/23 11:29:37;;;;;;;4.72;1.40;;;23.40;93.90;;;;;;5051540;28;20144;-63
2022/07/23 11:32:27;;;;;;;3.63;1.30;;;23.40;94.60;;;;;;5048350;28;20045;-64
2022/07/23 11:34:53;;;;;;;3.75;1.40;;;23.40;94.10;;;;;;5049671;28;20429;-67
2022/07/23 11:37:46;;;;;;;2.55;1.20;;;23.30;94.60;;;;;;5050224;28;20128;-64
2022/07/23 11:40:15;;;;;;;2.65;1.30;;;23.20;94.70;;;;;;5062487;28;20052;-62
2022/07/23 11:42:59;;;;;;;3.50;1.15;;;23.00;94.80;;;;;;5050099;28;20379;-68
2022/07/23 11:45:40;;;;;;;2.58;1.20;;;23.00;94.80;;;;;;5049984;28;20052;-65
2022/07/23 11:48:16;;;;;;;2.33;1.10;;;22.90;94.80;;;;;;5050527;28;20556;-65
2022/07/23 11:50:42;;;;;;;4.55;1.48;;;22.90;94.80;;;;;;5058075;28;20045;-69
2022/07/23 11:53:08;;;;;;;2.40;0.90;;;22.90;94.70;;;;;;5065598;28;20436;-65
2022/07/23 11:55:34;;;;;;;3.38;1.38;;;22.90;94.90;;;;;;5049713;28;20106;-67
2022/07/23 11:58:00;;;;;;;3.85;1.40;;;23.00;95.10;;;;;;5066106;28;20056;-66
2022/07/23 12:00:28;;;;;;;2.22;1.15;;;23.10;94.50;;;;;;5059904;28;20041;-65
2022/07/23 12:03:00;;;;;;;3.05;1.30;;;23.30;94.30;;;;;;5068371;28;20052;-67
2022/07/23 12:05:35;;;;;;;2.03;1.10;;;23.40;93.60;;;;;;5069624;28;20095;-65
2022/07/23 12:08:03;;;;;;;1.80;1.08;;;23.40;93.70;;;;;;5068085;28;20052;-63
2022/07/23 12:10:34;;;;;;;3.67;1.50;;;23.20;94.00;;;;;;5065533;28;20051;-66
2022/07/23 12:13:06;;;;;;;4.95;1.38;;;23.10;94.50;;;;;;5068671;28;20048;-65
2022/07/23 12:15:40;;;;;;;3.45;1.20;;;23.30;94.60;;;;;;5069521;28;20084;-64
2022/07/23 12:18:06;;;;;;;;;;;23.40;93.60;;;;;;5069862;28;20075;-65
2022/07/23 12:20:56;;;;;;;5.00;1.10;;;23.50;93.90;;;;;;5063641;28;19935;-67
2022/07/23 12:23:24;;;;;;;2.65;1.00;;;23.70;93.90;;;;;;5068314;28;20048;-64
2022/07/23 12:25:51;;;;;;;2.92;1.27;;;23.90;93.90;;;;;;5069585;28;20093;-65
2022/07/23 12:28:21;;;;;;;1.92;1.10;;;23.90;93.90;;;;;;5059975;28;20048;-65
2022/07/23 12:30:49;;;;;;;2.88;1.10;;;23.80;93.60;;;;;;5054140;28;20041;-68
2022/07/23 12:33:30;;;;;;;2.85;1.27;;;23.60;93.60;;;;;;5053185;28;20073;-65
2022/07/23 12:35:58;;;;;;;3.90;0.90;;;23.30;93.70;;;;;;5057384;28;20402;-65
2022/07/23 12:38:26;;;;;;;5.22;1.45;;;23.30;94.20;;;;;;5059987;28;20056;-67
2022/07/23 12:40:56;;;;;;;3.40;1.25;;;23.40;94.50;;;;;;5050522;28;20545;-66
2022/07/23 12:43:31;;;;;;;3.30;1.40;;;23.60;94.20;;;;;;5068374;28;20048;-64
2022/07/23 12:46:05;;;;;;;2.63;1.17;;;23.80;93.60;;;;;;5060729;28;20115;-64
2022/07/23 12:48:36;;;;;;;3.50;1.05;;;24.00;93.80;;;;;;5065359;28;20451;-67
2022/07/23 12:51:05;;;;;;;3.25;1.10;;;24.20;93.50;;;;;;5072059;28;20052;-65
2022/07/23 12:53:42;;;;;;;2.63;1.17;;;24.30;93.00;;;;;;5072627;28;20041;-65
2022/07/23 12:56:31;;;;;;;2.55;1.38;;;24.40;92.60;;;;;;5068622;28;20386;-65